Time;durP1;ratioP1;P1;durP2;ratioP2;P2;SDS_P1;SDS_P2;PMS_P1;PMS_P2;Temp;Humidity;BMP_temperature;BMP_pressure;BME280_temperature;BME280_humidity;BME280_pressure;Samples;Min_cycle;Max_cycle;Signal;HPM_P1;HPM_P2
2023/05/16 00:00:09;;;;;;;;;;;;;;;;;;5017240;28;19917;-75
2023/05/16 00:02:36;;;;;;;;;;;;;;;;;;5018796;28;19909;-74
2023/05/16 00:05:03;;;;;;;;;;;;;;;;;;5014112;28;19917;-75
2023/05/16 00:07:29;;;;;;;;;;;;;;;;;;5021057;28;19913;-74
2023/05/16 00:09:55;;;;;;;;;;;;;;;;;;5020769;28;20444;-75
2023/05/16 00:12:21;;;;;;;;;;;;;;;;;;5026290;28;19912;-75
2023/05/16 00:14:49;;;;;;;;;;;;;;;;;;5020706;28;19909;-75
2023/05/16 00:17:16;;;;;;;;;;;;;;;;;;5021509;28;20043;-75
2023/05/16 00:19:43;;;;;;;;;;;;;;;;;;5019147;28;20004;-74
2023/05/16 00:22:10;;;;;;;;;;;;;;;;;;5021364;28;19913;-74
2023/05/16 00:24:36;;;;;;;;;;;;;;;;;;5014494;28;19913;-75
2023/05/16 00:27:02;;;;;;;;;;;;;;;;;;5026267;28;19920;-74
2023/05/16 00:29:28;;;;;;;;;;;;;;;;;;5023692;28;19924;-75
2023/05/16 00:31:54;;;;;;;;;;;;;;;;;;5018658;28;20285;-75
2023/05/16 00:34:21;;;;;;;;;;;;;;;;;;5017137;28;19913;-74
2023/05/16 00:36:47;;;;;;;;;;;;;;;;;;5021483;28;19916;-74
2023/05/16 00:39:14;;;;;;;;;;;;;;;;;;5022232;28;19917;-74
2023/05/16 00:41:40;;;;;;;;;;;;;;;;;;5012049;28;19910;-74
2023/05/16 00:44:06;;;;;;;;;;;;;;;;;;5013116;28;20620;-74
2023/05/16 00:46:32;;;;;;;;;;;;;;;;;;5017621;28;19967;-74
2023/05/16 00:48:59;;;;;;;;;;;;;;;;;;5015568;28;19920;-74
2023/05/16 00:51:25;;;;;;;;;;;;;;;;;;5052205;28;20000;-74
2023/05/16 00:53:51;;;;;;;;;;;;;;;;;;5034721;28;20298;-75
2023/05/16 00:56:17;;;;;;;;;;;;;;;;;;5022574;28;19914;-74
2023/05/16 00:58:43;;;;;;;;;;;;;;;;;;5018019;28;19953;-74
2023/05/16 01:01:11;;;;;;;;;;;;;;;;;;5050798;28;20024;-75
2023/05/16 01:03:37;;;;;;;;;;;;;;;;;;5015026;28;20521;-74
2023/05/16 01:06:05;;;;;;;;;;;;;;;;;;5019646;28;19909;-73
2023/05/16 01:08:31;;;;;;;;;;;;;;;;;;5022584;28;20138;-73
2023/05/16 01:10:57;;;;;;;;;;;;;;;;;;5020849;28;19921;-74
2023/05/16 01:13:24;;;;;;;;;;;;;;;;;;5020389;28;19913;-73
2023/05/16 01:15:50;;;;;;;;;;;;;;;;;;5026629;28;19908;-74
2023/05/16 01:18:17;;;;;;;;;;;;;;;;;;5011509;28;20003;-73
2023/05/16 01:20:44;;;;;;;;;;;;;;;;;;5050050;28;19992;-74
2023/05/16 01:23:10;;;;;;;;;;;;;;;;;;5020679;28;19910;-74
2023/05/16 01:25:36;;;;;;;;;;;;;;;;;;5020528;28;19992;-75
2023/05/16 01:28:02;;;;;;;;;;;;;;;;;;5020863;28;20015;-73
2023/05/16 01:30:28;;;;;;;;;;;;;;;;;;5018677;28;19990;-75
2023/05/16 01:32:54;;;;;;;;;;;;;;;;;;5023571;28;19917;-75
2023/05/16 01:35:21;;;;;;;;;;;;;;;;;;5018314;28;20636;-72
2023/05/16 01:37:48;;;;;;;;;;;;;;;;;;5019614;28;20290;-73
2023/05/16 01:40:14;;;;;;;;;;;;;;;;;;5027937;28;19909;-73
2023/05/16 01:42:40;;;;;;;;;;;;;;;;;;5015619;28;20611;-74
2023/05/16 01:45:06;;;;;;;;;;;;;;;;;;5049316;28;19919;-75
2023/05/16 01:47:32;;;;;;;;;;;;;;;;;;5020521;28;20043;-74
2023/05/16 01:49:58;;;;;;;;;;;;;;;;;;5011822;28;20012;-75
2023/05/16 01:52:24;;;;;;;;;;;;;;;;;;5014641;28;20341;-74
2023/05/16 01:54:50;;;;;;;;;;;;;;;;;;5019488;28;19909;-74
2023/05/16 01:57:16;;;;;;;;;;;;;;;;;;5024439;28;19920;-74
2023/05/16 01:59:42;;;;;;;;;;;;;;;;;;5011312;28;20445;-75
2023/05/16 02:02:09;;;;;;;;;;;;;;;;;;5012663;28;20556;-74
2023/05/16 02:04:37;;;;;;;;;;;;;;;;;;5049626;28;19928;-73
2023/05/16 02:07:03;;;;;;;;;;;;;;;;;;5018536;28;20003;-73
2023/05/16 02:09:29;;;;;;;;;;;;;;;;;;5020429;28;19910;-74
2023/05/16 02:11:55;;;;;;;;;;;;;;;;;;5027491;28;20004;-74
2023/05/16 02:14:24;;;;;;;;;;;;;;;;;;5027144;28;20410;-73
2023/05/16 02:16:51;;;;;;;;;;;;;;;;;;5017449;28;19917;-73
2023/05/16 02:19:17;;;;;;;;;;;;;;;;;;5021721;28;19923;-75
2023/05/16 02:21:43;;;;;;;;;;;;;;;;;;5030917;28;19963;-74
2023/05/16 02:24:10;;;;;;;;;;;;;;;;;;5021383;28;19951;-74
2023/05/16 02:26:36;;;;;;;;;;;;;;;;;;5023210;28;20520;-73
2023/05/16 02:29:02;;;;;;;;;;;;;;;;;;5015077;28;20367;-74
2023/05/16 02:31:28;;;;;;;;;;;;;;;;;;5017780;28;19920;-73
2023/05/16 02:33:54;;;;;;;;;;;;;;;;;;5022897;28;20242;-75
2023/05/16 02:36:20;;;;;;;;;;;;;;;;;;5012542;28;20026;-74
2023/05/16 02:38:47;;;;;;;;;;;;;;;;;;5019344;28;19967;-75
2023/05/16 02:41:13;;;;;;;;;;;;;;;;;;5013970;28;20379;-74
2023/05/16 02:43:39;;;;;;;;;;;;;;;;;;5015537;28;19952;-74
2023/05/16 02:46:05;;;;;;;;;;;;;;;;;;5018084;28;20026;-75
2023/05/16 02:48:31;;;;;;;;;;;;;;;;;;5019854;28;21348;-74
2023/05/16 02:50:58;;;;;;;;;;;;;;;;;;5022076;28;19909;-74
2023/05/16 02:53:24;;;;;;;;;;;;;;;;;;5014161;28;19989;-74
2023/05/16 02:55:50;;;;;;;;;;;;;;;;;;5045258;28;19913;-75
2023/05/16 02:58:16;;;;;;;;;;;;;;;;;;5017100;28;19917;-74
2023/05/16 03:00:42;;;;;;;;;;;;;;;;;;5023604;28;19987;-74
2023/05/16 03:03:08;;;;;;;;;;;;;;;;;;5020712;28;20372;-74
2023/05/16 03:05:34;;;;;;;;;;;;;;;;;;5014444;28;19917;-74
2023/05/16 03:08:00;;;;;;;;;;;;;;;;;;5053791;28;19917;-73
2023/05/16 03:10:26;;;;;;;;;;;;;;;;;;5022140;28;20001;-74
2023/05/16 03:12:52;;;;;;;;;;;;;;;;;;5019189;28;19916;-73
2023/05/16 03:15:18;;;;;;;;;;;;;;;;;;5019869;28;19982;-75
2023/05/16 03:17:44;;;;;;;;;;;;;;;;;;5020026;28;19965;-75
2023/05/16 03:20:11;;;;;;;;;;;;;;;;;;5022991;28;20329;-73
2023/05/16 03:22:37;;;;;;;;;;;;;;;;;;5055135;28;20051;-74
2023/05/16 03:25:03;;;;;;;;;;;;;;;;;;5019568;28;19910;-75
2023/05/16 03:27:30;;;;;;;;;;;;;;;;;;5024201;28;19928;-76
2023/05/16 03:29:56;;;;;;;;;;;;;;;;;;5049380;28;20275;-74
2023/05/16 03:32:22;;;;;;;;;;;;;;;;;;5039694;28;19920;-75
2023/05/16 03:34:48;;;;;;;;;;;;;;;;;;5022573;28;19909;-74
2023/05/16 03:37:14;;;;;;;;;;;;;;;;;;5026423;28;19960;-75
2023/05/16 03:39:40;;;;;;;;;;;;;;;;;;5023265;28;19909;-75
2023/05/16 03:42:07;;;;;;;;;;;;;;;;;;5029845;28;20442;-77
2023/05/16 03:44:33;;;;;;;;;;;;;;;;;;5017606;28;19944;-75
2023/05/16 03:46:59;;;;;;;;;;;;;;;;;;5020568;28;20036;-74
2023/05/16 03:49:25;;;;;;;;;;;;;;;;;;5014960;28;19909;-75
2023/05/16 03:51:51;;;;;;;;;;;;;;;;;;5018378;28;19917;-73
2023/05/16 03:54:17;;;;;;;;;;;;;;;;;;5021423;28;20007;-75
2023/05/16 03:56:43;;;;;;;;;;;;;;;;;;5021840;28;19963;-74
2023/05/16 03:59:09;;;;;;;;;;;;;;;;;;5020170;28;19909;-75
2023/05/16 04:01:35;;;;;;;;;;;;;;;;;;5011785;28;19913;-73
2023/05/16 04:04:01;;;;;;;;;;;;;;;;;;5050946;28;19928;-75
2023/05/16 04:06:28;;;;;;;;;;;;;;;;;;5050093;28;19909;-75
2023/05/16 04:08:54;;;;;;;;;;;;;;;;;;5038346;28;19909;-75
2023/05/16 04:11:20;;;;;;;;;;;;;;;;;;5015238;28;19909;-75
2023/05/16 04:13:46;;;;;;;;;;;;;;;;;;5019096;28;19920;-75
2023/05/16 04:16:12;;;;;;;;;;;;;;;;;;5007552;28;19917;-74
2023/05/16 04:18:38;;;;;;;;;;;;;;;;;;5017496;28;19933;-74
2023/05/16 04:21:04;;;;;;;;;;;;;;;;;;5022080;28;19908;-73
2023/05/16 04:23:30;;;;;;;;;;;;;;;;;;5016147;28;19920;-74
2023/05/16 04:25:57;;;;;;;;;;;;;;;;;;5022805;28;19918;-74
2023/05/16 04:28:23;;;;;;;;;;;;;;;;;;5019208;28;19909;-74
2023/05/16 04:30:50;;;;;;;;;;;;;;;;;;5051354;28;19920;-75
2023/05/16 04:33:16;;;;;;;;;;;;;;;;;;5019371;28;19909;-73
2023/05/16 04:35:42;;;;;;;;;;;;;;;;;;5023313;28;20353;-74
2023/05/16 04:38:08;;;;;;;;;;;;;;;;;;5019091;28;19921;-73
2023/05/16 04:40:34;;;;;;;;;;;;;;;;;;5023722;28;20408;-75
2023/05/16 04:43:00;;;;;;;;;;;;;;;;;;5018816;28;19909;-75
2023/05/16 04:45:26;;;;;;;;;;;;;;;;;;5022206;28;19909;-75
2023/05/16 04:47:52;;;;;;;;;;;;;;;;;;5044653;28;19925;-75
2023/05/16 04:50:18;;;;;;;;;;;;;;;;;;5017160;28;19913;-75
2023/05/16 04:52:45;;;;;;;;;;;;;;;;;;5050109;28;20372;-74
2023/05/16 04:55:11;;;;;;;;;;;;;;;;;;5015168;28;20378;-75
2023/05/16 04:57:37;;;;;;;;;;;;;;;;;;5054698;28;19948;-75
2023/05/16 05:00:06;;;;;;;;;;;;;;;;;;5019732;28;20011;-75
2023/05/16 05:02:32;;;;;;;;;;;;;;;;;;5019033;28;19909;-76
2023/05/16 05:04:58;;;;;;;;;;;;;;;;;;5021812;28;19967;-74
2023/05/16 05:07:27;;;;;;;;;;;;;;;;;;5020920;28;20378;-73
2023/05/16 05:09:54;;;;;;;;;;;;;;;;;;5020652;28;19975;-75
2023/05/16 05:12:22;;;;;;;;;;;;;;;;;;5048044;28;19921;-74
2023/05/16 05:14:48;;;;;;;;;;;;;;;;;;5018584;28;20431;-78
2023/05/16 05:17:15;;;;;;;;;;;;;;;;;;5019419;28;19924;-78
2023/05/16 05:19:41;;;;;;;;;;;;;;;;;;5020021;28;19935;-77
2023/05/16 05:22:07;;;;;;;;;;;;;;;;;;5028661;28;19909;-78
2023/05/16 05:24:33;;;;;;;;;;;;;;;;;;5012686;28;19946;-78
2023/05/16 05:26:59;;;;;;;;;;;;;;;;;;5029237;28;20358;-78
2023/05/16 05:29:25;;;;;;;;;;;;;;;;;;5022337;28;19917;-76
2023/05/16 05:31:51;;;;;;;;;;;;;;;;;;5030598;28;20278;-79
2023/05/16 05:34:17;;;;;;;;;;;;;;;;;;5019731;28;19917;-79
2023/05/16 05:36:43;;;;;;;;;;;;;;;;;;5018551;28;19917;-80
2023/05/16 05:39:10;;;;;;;;;;;;;;;;;;5020095;28;19964;-78
2023/05/16 05:41:36;;;;;;;;;;;;;;;;;;5017588;28;20004;-78
2023/05/16 05:44:02;;;;;;;;;;;;;;;;;;5015843;28;19917;-76
2023/05/16 05:46:28;;;;;;;;;;;;;;;;;;5015614;28;19920;-78
2023/05/16 05:48:54;;;;;;;;;;;;;;;;;;5012544;28;19996;-78
2023/05/16 05:51:20;;;;;;;;;;;;;;;;;;5045822;28;19938;-77
2023/05/16 05:53:47;;;;;;;;;;;;;;;;;;5014424;28;20318;-80
2023/05/16 05:56:13;;;;;;;;;;;;;;;;;;5012402;28;19915;-76
2023/05/16 05:58:40;;;;;;;;;;;;;;;;;;5014017;28;19917;-77
2023/05/16 06:01:06;;;;;;;;;;;;;;;;;;5017838;28;19982;-76
2023/05/16 06:03:32;;;;;;;;;;;;;;;;;;5014639;28;20210;-78
2023/05/16 06:05:58;;;;;;;;;;;;;;;;;;5009992;28;19968;-77
2023/05/16 06:08:24;;;;;;;;;;;;;;;;;;5017377;28;19910;-79
2023/05/16 06:10:51;;;;;;;;;;;;;;;;;;5018077;28;20786;-78
2023/05/16 06:13:17;;;;;;;;;;;;;;;;;;5013251;28;20134;-78
2023/05/16 06:15:43;;;;;;;;;;;;;;;;;;5023655;28;19975;-78
2023/05/16 06:18:09;;;;;;;;;;;;;;;;;;5013458;28;19968;-78
2023/05/16 06:20:35;;;;;;;;;;;;;;;;;;5010080;28;19909;-77
2023/05/16 06:23:01;;;;;;;;;;;;;;;;;;5011918;28;19992;-77
2023/05/16 06:25:27;;;;;;;;;;;;;;;;;;5019377;28;20356;-78
2023/05/16 06:27:53;;;;;;;;;;;;;;;;;;5022828;28;19909;-76
2023/05/16 06:30:20;;;;;;;;;;;;;;;;;;5030019;28;19916;-78
2023/05/16 06:32:46;;;;;;;;;;;;;;;;;;5030625;28;19909;-78
2023/05/16 06:35:12;;;;;;;;;;;;;;;;;;5022604;28;19909;-77
2023/05/16 06:37:38;;;;;;;;;;;;;;;;;;5021136;28;20012;-78
2023/05/16 06:40:04;;;;;;;;;;;;;;;;;;5023823;28;19992;-79
2023/05/16 06:42:30;;;;;;;;;;;;;;;;;;5018553;28;19913;-78
2023/05/16 06:44:56;;;;;;;;;;;;;;;;;;5023195;28;19914;-79
2023/05/16 06:47:23;;;;;;;;;;;;;;;;;;5034698;28;19953;-79
2023/05/16 06:49:49;;;;;;;;;;;;;;;;;;5018790;28;19972;-79
2023/05/16 06:52:15;;;;;;;;;;;;;;;;;;5018598;28;20016;-80
2023/05/16 06:54:41;;;;;;;;;;;;;;;;;;5023355;28;20015;-79
2023/05/16 06:57:07;;;;;;;;;;;;;;;;;;5020639;28;20004;-77
2023/05/16 06:59:34;;;;;;;;;;;;;;;;;;5028648;28;19955;-79
2023/05/16 07:02:00;;;;;;;;;;;;;;;;;;5018146;28;19948;-80
2023/05/16 07:04:26;;;;;;;;;;;;;;;;;;5018719;28;19928;-78
2023/05/16 07:06:52;;;;;;;;;;;;;;;;;;5018357;28;20000;-81
2023/05/16 07:09:18;;;;;;;;;;;;;;;;;;5023428;28;20310;-79
2023/05/16 07:11:44;;;;;;;;;;;;;;;;;;5022388;28;19914;-77
2023/05/16 07:14:10;;;;;;;;;;;;;;;;;;5016859;28;19913;-78
2023/05/16 07:16:37;;;;;;;;;;;;;;;;;;5022149;28;19913;-77
2023/05/16 07:19:03;;;;;;;;;;;;;;;;;;5019360;28;20316;-80
2023/05/16 07:21:29;;;;;;;;;;;;;;;;;;5021257;28;19916;-81
2023/05/16 07:23:56;;;;;;;;;;;;;;;;;;5041853;28;19924;-80
2023/05/16 07:26:22;;;;;;;;;;;;;;;;;;5017277;28;19908;-78
2023/05/16 07:28:48;;;;;;;;;;;;;;;;;;5014954;28;19917;-78
2023/05/16 07:31:15;;;;;;;;;;;;;;;;;;5023378;28;20016;-78
2023/05/16 07:33:42;;;;;;;;;;;;;;;;;;5023071;28;19924;-77
2023/05/16 07:36:08;;;;;;;;;;;;;;;;;;5001754;28;19913;-77
2023/05/16 07:38:34;;;;;;;;;;;;;;;;;;5014702;28;19913;-81
2023/05/16 07:41:00;;;;;;;;;;;;;;;;;;5047839;28;19909;-78
2023/05/16 07:43:26;;;;;;;;;;;;;;;;;;5006567;28;20386;-80
2023/05/16 07:45:52;;;;;;;;;;;;;;;;;;5020934;28;19932;-78
2023/05/16 07:48:18;;;;;;;;;;;;;;;;;;5026587;28;19909;-78
2023/05/16 07:50:44;;;;;;;;;;;;;;;;;;5004126;28;20382;-77
2023/05/16 07:53:10;;;;;;;;;;;;;;;;;;5016215;28;19909;-80
2023/05/16 07:55:36;;;;;;;;;;;;;;;;;;5047702;28;20367;-79
2023/05/16 07:58:02;;;;;;;;;;;;;;;;;;5015675;28;19913;-78
2023/05/16 08:00:28;;;;;;;;;;;;;;;;;;5019205;28;19917;-80
2023/05/16 08:02:54;;;;;;;;;;;;;;;;;;5022027;28;19916;-78
2023/05/16 08:05:20;;;;;;;;;;;;;;;;;;5028996;28;19943;-79
2023/05/16 08:07:46;;;;;;;;;;;;;;;;;;5020670;28;19962;-81
2023/05/16 08:10:12;;;;;;;;;;;;;;;;;;5030222;28;19913;-81
2023/05/16 08:12:38;;;;;;;;;;;;;;;;;;5026690;28;20388;-78
2023/05/16 08:15:04;;;;;;;;;;;;;;;;;;5034249;28;19909;-82
2023/05/16 08:17:30;;;;;;;;;;;;;;;;;;5038127;28;20354;-81
2023/05/16 08:19:58;;;;;;;;;;;;;;;;;;5048369;28;19909;-80
2023/05/16 08:22:24;;;;;;;;;;;;;;;;;;5033609;28;19909;-80
2023/05/16 08:24:50;;;;;;;;;;;;;;;;;;5023008;28;19910;-82
2023/05/16 08:27:16;;;;;;;;;;;;;;;;;;5035769;28;19920;-80
2023/05/16 08:29:42;;;;;;;;;;;;;;;;;;5033421;28;19905;-80
2023/05/16 08:32:08;;;;;;;;;;;;;;;;;;5024362;28;19912;-79
2023/05/16 08:34:35;;;;;;;;;;;;;;;;;;5032873;28;19915;-81
2023/05/16 08:37:01;;;;;;;;;;;;;;;;;;5029590;28;19940;-81
2023/05/16 08:39:29;;;;;;;;;;;;;;;;;;5014639;28;19967;-81
2023/05/16 08:41:56;;;;;;;;;;;;;;;;;;5012467;28;19937;-79
2023/05/16 08:44:21;;;;;;;;;;;;;;;;;;5015052;28;20428;-77
2023/05/16 08:46:47;;;;;;;;;;;;;;;;;;5025095;28;19995;-80
2023/05/16 08:49:14;;;;;;;;;;;;;;;;;;5032746;28;20000;-79
2023/05/16 08:51:40;;;;;;;;;;;;;;;;;;5027948;28;20068;-79
2023/05/16 08:54:06;;;;;;;;;;;;;;;;;;5012077;28;19905;-79
2023/05/16 08:56:32;;;;;;;;;;;;;;;;;;5024673;28;19909;-80
2023/05/16 08:58:58;;;;;;;;;;;;;;;;;;5013127;28;19991;-78
2023/05/16 09:01:24;;;;;;;;;;;;;;;;;;5026494;28;19909;-79
2023/05/16 09:03:50;;;;;;;;;;;;;;;;;;5015484;28;19920;-80
2023/05/16 09:06:16;;;;;;;;;;;;;;;;;;5034736;28;20004;-78
2023/05/16 09:08:42;;;;;;;;;;;;;;;;;;5032256;28;20015;-79
2023/05/16 09:11:09;;;;;;;;;;;;;;;;;;5032649;28;20074;-78
2023/05/16 09:13:35;;;;;;;;;;;;;;;;;;5013840;28;19967;-78
2023/05/16 09:16:01;;;;;;;;;;;;;;;;;;5016649;28;19910;-80
2023/05/16 09:18:27;;;;;;;;;;;;;;;;;;5031449;28;20409;-81
2023/05/16 09:20:53;;;;;;;;;;;;;;;;;;5031977;28;19955;-80
2023/05/16 09:23:19;;;;;;;;;;;;;;;;;;5030554;28;19913;-81
2023/05/16 09:25:45;;;;;;;;;;;;;;;;;;5031960;28;19919;-80
2023/05/16 09:28:11;;;;;;;;;;;;;;;;;;5026833;28;19909;-81
2023/05/16 09:30:38;;;;;;;;;;;;;;;;;;5027301;28;19917;-81
2023/05/16 09:33:04;;;;;;;;;;;;;;;;;;5030000;28;19952;-78
2023/05/16 09:35:30;;;;;;;;;;;;;;;;;;5027350;28;20354;-79
2023/05/16 09:37:56;;;;;;;;;;;;;;;;;;5043675;28;19917;-79
2023/05/16 09:40:22;;;;;;;;;;;;;;;;;;5028401;28;20393;-78
2023/05/16 09:42:48;;;;;;;;;;;;;;;;;;5025541;28;19917;-81
2023/05/16 09:45:14;;;;;;;;;;;;;;;;;;5031161;28;19916;-78
2023/05/16 09:47:45;;;;;;;;;;;;;;;;;;5017476;28;20371;-81
2023/05/16 09:50:11;;;;;;;;;;;;;;;;;;5011739;28;19916;-83
2023/05/16 09:52:37;;;;;;;;;;;;;;;;;;5026831;28;19970;-80
2023/05/16 09:55:03;;;;;;;;;;;;;;;;;;5026407;28;20294;-80
2023/05/16 09:57:30;;;;;;;;;;;;;;;;;;5026080;28;19921;-82
2023/05/16 09:59:56;;;;;;;;;;;;;;;;;;5027291;28;19909;-80
2023/05/16 10:02:22;;;;;;;;;;;;;;;;;;5017265;28;20062;-80
2023/05/16 10:04:48;;;;;;;;;;;;;;;;;;5025045;28;19917;-80
2023/05/16 10:07:14;;;;;;;;;;;;;;;;;;5031414;28;19909;-79
2023/05/16 10:09:55;;;;;;;;;;;;;;;;;;5104531;27;19955;-80
2023/05/16 10:12:21;;;;;;;;;;;;;;;;;;5100157;28;19946;-78
2023/05/16 10:14:50;;;;;;;;;;;;;;;;;;5083330;28;19916;-78
2023/05/16 10:17:16;;;;;;;;;;;;;;;;;;5068006;28;19916;-80
2023/05/16 10:19:42;;;;;;;;;;;;;;;;;;5108041;28;19919;-79
2023/05/16 10:22:08;;;;;;;;;;;;;;;;;;5101121;28;19920;-80
2023/05/16 10:24:34;;;;;;;;;;;;;;;;;;5087649;28;19934;-83
2023/05/16 10:27:02;;;;;;;;;;;;;;;;;;5072926;28;19957;-78
2023/05/16 10:29:28;;;;;;;;;;;;;;;;;;5089349;28;20376;-79
2023/05/16 10:31:54;;;;;;;;;;;;;;;;;;5088309;28;20011;-79
2023/05/16 10:34:20;;;;;;;;;;;;;;;;;;5081499;28;19994;-80
2023/05/16 10:36:46;;;;;;;;;;;;;;;;;;5102323;28;19938;-81
2023/05/16 10:39:12;;;;;;;;;;;;;;;;;;5061601;28;20407;-79
2023/05/16 10:41:38;;;;;;;;;;;;;;;;;;5079242;28;19924;-83
2023/05/16 10:44:04;;;;;;;;;;;;;;;;;;5066919;28;19920;-81
2023/05/16 10:46:30;;;;;;;;;;;;;;;;;;5081698;28;19912;-78
2023/05/16 10:48:56;;;;;;;;;;;;;;;;;;5077428;28;19927;-81
2023/05/16 10:51:22;;;;;;;;;;;;;;;;;;5065580;28;19916;-80
2023/05/16 10:53:48;;;;;;;;;;;;;;;;;;5079554;28;19928;-80
2023/05/16 10:56:14;;;;;;;;;;;;;;;;;;5085373;28;19912;-81
2023/05/16 10:58:43;;;;;;;;;;;;;;;;;;5080135;28;20557;-81
2023/05/16 11:01:10;;;;;;;;;;;;;;;;;;5084077;28;19995;-81
2023/05/16 11:03:36;;;;;;;;;;;;;;;;;;5075466;28;19965;-79
2023/05/16 11:06:02;;;;;;;;;;;;;;;;;;5065218;28;19991;-81
2023/05/16 11:08:28;;;;;;;;;;;;;;;;;;5075271;28;20093;-80
2023/05/16 11:10:54;;;;;;;;;;;;;;;;;;5091711;28;19913;-82
2023/05/16 11:13:22;;;;;;;;;;;;;;;;;;5100038;28;19912;-82
2023/05/16 11:15:48;;;;;;;;;;;;;;;;;;5096472;28;19943;-82
2023/05/16 11:18:14;;;;;;;;;;;;;;;;;;5072482;28;20356;-84
2023/05/16 11:20:40;;;;;;;;;;;;;;;;;;5066948;28;19919;-83
2023/05/16 11:23:06;;;;;;;;;;;;;;;;;;5085929;28;19920;-82
2023/05/16 11:25:32;;;;;;;;;;;;;;;;;;5063942;28;19920;-84
2023/05/16 11:27:58;;;;;;;;;;;;;;;;;;5088673;28;19924;-81
2023/05/16 11:30:24;;;;;;;;;;;;;;;;;;5090551;28;19919;-80
2023/05/16 11:32:50;;;;;;;;;;;;;;;;;;5068182;28;19959;-82
2023/05/16 11:35:16;;;;;;;;;;;;;;;;;;5082094;28;19955;-81
2023/05/16 11:37:42;;;;;;;;;;;;;;;;;;5060107;28;20337;-81
2023/05/16 11:40:10;;;;;;;;;;;;;;;;;;5085077;28;19916;-82
2023/05/16 11:42:36;;;;;;;;;;;;;;;;;;5085516;28;20030;-80
2023/05/16 11:45:03;;;;;;;;;;;;;;;;;;5084115;28;19924;-80
2023/05/16 11:47:29;;;;;;;;;;;;;;;;;;5064774;28;19916;-81
2023/05/16 11:49:55;;;;;;;;;;;;;;;;;;5086694;28;19916;-79
2023/05/16 11:52:22;;;;;;;;;;;;;;;;;;5060434;28;19920;-78
2023/05/16 11:54:48;;;;;;;;;;;;;;;;;;5069155;28;19945;-80
2023/05/16 11:57:14;;;;;;;;;;;;;;;;;;5063188;28;19912;-76
2023/05/16 11:59:40;;;;;;;;;;;;;;;;;;5091227;28;19916;-79
2023/05/16 12:02:08;;;;;;;;;;;;;;;;;;5080923;28;19920;-79
2023/05/16 12:04:34;;;;;;;;;;;;;;;;;;5077214;28;19926;-79
2023/05/16 12:07:00;;;;;;;;;;;;;;;;;;5074048;28;19912;-79
2023/05/16 12:09:26;;;;;;;;;;;;;;;;;;5071857;28;19920;-78
2023/05/16 12:11:52;;;;;;;;;;;;;;;;;;5091962;28;19962;-79
2023/05/16 12:14:20;;;;;;;;;;;;;;;;;;5067784;28;19973;-79
2023/05/16 12:16:47;;;;;;;;;;;;;;;;;;5059953;28;20436;-80
2023/05/16 12:19:13;;;;;;;;;;;;;;;;;;5082960;28;19930;-78
2023/05/16 12:21:39;;;;;;;;;;;;;;;;;;5066888;28;19912;-78
2023/05/16 12:24:05;;;;;;;;;;;;;;;;;;5083637;28;19962;-79
2023/05/16 12:26:32;;;;;;;;;;;;;;;;;;5084041;28;19947;-79
2023/05/16 12:28:59;;;;;;;;;;;;;;;;;;5060222;28;19916;-79
2023/05/16 12:31:25;;;;;;;;;;;;;;;;;;5080984;28;19917;-76
2023/05/16 12:33:51;;;;;;;;;;;;;;;;;;5086047;28;20032;-77
2023/05/16 12:36:18;;;;;;;;;;;;;;;;;;5083957;28;19978;-76
2023/05/16 12:38:44;;;;;;;;;;;;;;;;;;5085524;28;19912;-77
2023/05/16 12:41:10;;;;;;;;;;;;;;;;;;5059806;28;20406;-76
2023/05/16 12:43:36;;;;;;;;;;;;;;;;;;5066162;28;19913;-76
2023/05/16 12:46:02;;;;;;;;;;;;;;;;;;5052258;28;19941;-76
2023/05/16 12:48:28;;;;;;;;;;;;;;;;;;5047592;28;19919;-76
2023/05/16 12:50:54;;;;;;;;;;;;;;;;;;5085940;28;19924;-75
2023/05/16 12:53:20;;;;;;;;;;;;;;;;;;5066254;28;19920;-76
2023/05/16 12:55:46;;;;;;;;;;;;;;;;;;5082380;28;19943;-76
2023/05/16 12:58:12;;;;;;;;;;;;;;;;;;5080945;28;19970;-77
2023/05/16 13:00:38;;;;;;;;;;;;;;;;;;5050069;28;20400;-76
2023/05/16 13:03:04;;;;;;;;;;;;;;;;;;5062997;28;19912;-78
2023/05/16 13:05:30;;;;;;;;;;;;;;;;;;5065117;28;19920;-77
2023/05/16 13:07:56;;;;;;;;;;;;;;;;;;5083824;28;20008;-78
2023/05/16 13:10:24;;;;;;;;;;;;;;;;;;5058545;28;19940;-78
2023/05/16 13:12:50;;;;;;;;;;;;;;;;;;5084542;28;19949;-77
2023/05/16 13:15:16;;;;;;;;;;;;;;;;;;5063007;28;20370;-79
2023/05/16 13:17:43;;;;;;;;;;;;;;;;;;5063458;28;19912;-77
2023/05/16 13:20:12;;;;;;;;;;;;;;;;;;5080658;28;19919;-76
2023/05/16 13:22:38;;;;;;;;;;;;;;;;;;5060800;28;19916;-78
2023/05/16 13:25:04;;;;;;;;;;;;;;;;;;5062216;28;19937;-78
2023/05/16 13:27:30;;;;;;;;;;;;;;;;;;5066304;28;19916;-77
2023/05/16 13:29:57;;;;;;;;;;;;;;;;;;5085223;28;20022;-76
2023/05/16 13:32:23;;;;;;;;;;;;;;;;;;5060243;28;19935;-77
2023/05/16 13:34:50;;;;;;;;;;;;;;;;;;5077679;28;19916;-78
2023/05/16 13:37:16;;;;;;;;;;;;;;;;;;5063608;28;19947;-77
2023/05/16 13:39:42;;;;;;;;;;;;;;;;;;5086414;28;19958;-77
2023/05/16 13:42:08;;;;;;;;;;;;;;;;;;5068458;28;20349;-77
2023/05/16 13:44:34;;;;;;;;;;;;;;;;;;5078340;28;19916;-78
2023/05/16 13:47:00;;;;;;;;;;;;;;;;;;5078655;28;19916;-77
2023/05/16 13:49:26;;;;;;;;;;;;;;;;;;5065202;28;20384;-78
2023/05/16 13:51:52;;;;;;;;;;;;;;;;;;5048281;28;19957;-76
2023/05/16 13:54:18;;;;;;;;;;;;;;;;;;5051647;28;19927;-77
2023/05/16 13:56:44;;;;;;;;;;;;;;;;;;5065285;28;19916;-77
2023/05/16 13:59:10;;;;;;;;;;;;;;;;;;5078085;28;20365;-77
2023/05/16 14:01:36;;;;;;;;;;;;;;;;;;5060176;28;19921;-77
2023/05/16 14:04:02;;;;;;;;;;;;;;;;;;5076808;28;19950;-78
2023/05/16 14:06:28;;;;;;;;;;;;;;;;;;5081542;28;19912;-77
2023/05/16 14:08:54;;;;;;;;;;;;;;;;;;5071430;28;20419;-77
2023/05/16 14:11:25;;;;;;;;;;;;;;;;;;5038488;28;19921;-77
2023/05/16 14:13:51;;;;;;;;;;;;;;;;;;5034298;28;19913;-77
2023/05/16 14:16:17;;;;;;;;;;;;;;;;;;5063397;28;19970;-76
2023/05/16 14:18:43;;;;;;;;;;;;;;;;;;5052306;28;19931;-79
2023/05/16 14:21:09;;;;;;;;;;;;;;;;;;5061606;28;20324;-77
2023/05/16 14:23:37;;;;;;;;;;;;;;;;;;5063839;28;20013;-78
2023/05/16 14:26:03;;;;;;;;;;;;;;;;;;5064471;28;19921;-78
2023/05/16 14:28:31;;;;;;;;;;;;;;;;;;5059196;28;20015;-78
2023/05/16 14:30:57;;;;;;;;;;;;;;;;;;5058739;28;19921;-77
2023/05/16 14:33:23;;;;;;;;;;;;;;;;;;5041267;28;19921;-77
2023/05/16 14:35:49;;;;;;;;;;;;;;;;;;5061429;28;20078;-76
2023/05/16 14:38:15;;;;;;;;;;;;;;;;;;5063062;28;20007;-77
2023/05/16 14:40:41;;;;;;;;;;;;;;;;;;5043727;28;20355;-77
2023/05/16 14:43:07;;;;;;;;;;;;;;;;;;5042035;28;19990;-78
2023/05/16 14:45:33;;;;;;;;;;;;;;;;;;5064036;28;19912;-78
2023/05/16 14:47:59;;;;;;;;;;;;;;;;;;5064645;28;19932;-78
2023/05/16 14:50:26;;;;;;;;;;;;;;;;;;5044948;28;19912;-78
2023/05/16 14:52:52;;;;;;;;;;;;;;;;;;5040133;28;20495;-77
2023/05/16 14:55:18;;;;;;;;;;;;;;;;;;5061633;28;19948;-82
2023/05/16 14:57:44;;;;;;;;;;;;;;;;;;5073981;28;20034;-77
2023/05/16 15:00:10;;;;;;;;;;;;;;;;;;5048629;28;19975;-76
2023/05/16 15:02:36;;;;;;;;;;;;;;;;;;5047039;28;19966;-78
2023/05/16 15:05:02;;;;;;;;;;;;;;;;;;5065245;28;19912;-79
2023/05/16 15:07:28;;;;;;;;;;;;;;;;;;5041202;28;19943;-79
2023/05/16 15:09:55;;;;;;;;;;;;;;;;;;5044724;28;21645;-78
2023/05/16 15:12:21;;;;;;;;;;;;;;;;;;5041668;28;19917;-79
2023/05/16 15:14:50;;;;;;;;;;;;;;;;;;5063185;28;20351;-78
2023/05/16 15:17:16;;;;;;;;;;;;;;;;;;5041965;28;19919;-78
2023/05/16 15:19:42;;;;;;;;;;;;;;;;;;5033812;28;19921;-77
2023/05/16 15:22:09;;;;;;;;;;;;;;;;;;5030606;28;19940;-77
2023/05/16 15:24:35;;;;;;;;;;;;;;;;;;5059783;28;19920;-77
2023/05/16 15:27:03;;;;;;;;;;;;;;;;;;5043738;28;19916;-78
2023/05/16 15:29:29;;;;;;;;;;;;;;;;;;5038168;28;20411;-79
2023/05/16 15:31:55;;;;;;;;;;;;;;;;;;5061060;28;19920;-79
2023/05/16 15:34:21;;;;;;;;;;;;;;;;;;5049290;28;19920;-78
2023/05/16 15:36:47;;;;;;;;;;;;;;;;;;5026302;28;20950;-77
2023/05/16 15:39:13;;;;;;;;;;;;;;;;;;5066199;28;19958;-77
2023/05/16 15:41:39;;;;;;;;;;;;;;;;;;5046968;28;20546;-76
2023/05/16 15:44:05;;;;;;;;;;;;;;;;;;5021777;28;19912;-79
2023/05/16 15:46:31;;;;;;;;;;;;;;;;;;5059625;28;19935;-78
2023/05/16 15:48:57;;;;;;;;;;;;;;;;;;5065491;28;20293;-77
2023/05/16 15:51:23;;;;;;;;;;;;;;;;;;5033762;28;20282;-78
2023/05/16 15:53:49;;;;;;;;;;;;;;;;;;5053964;28;19956;-77
2023/05/16 15:56:15;;;;;;;;;;;;;;;;;;5051736;28;19919;-76
2023/05/16 15:58:45;;;;;;;;;;;;;;;;;;5068624;28;19912;-75
2023/05/16 16:01:11;;;;;;;;;;;;;;;;;;5060815;28;19917;-76
2023/05/16 16:03:37;;;;;;;;;;;;;;;;;;5046256;28;19965;-76
2023/05/16 16:06:03;;;;;;;;;;;;;;;;;;5065746;28;20338;-77
2023/05/16 16:08:29;;;;;;;;;;;;;;;;;;5039472;28;19924;-78
2023/05/16 16:10:57;;;;;;;;;;;;;;;;;;5061628;28;19921;-75
2023/05/16 16:13:23;;;;;;;;;;;;;;;;;;5062891;28;19920;-77
2023/05/16 16:15:49;;;;;;;;;;;;;;;;;;5063860;28;19919;-78
2023/05/16 16:18:15;;;;;;;;;;;;;;;;;;5064495;28;19913;-77
2023/05/16 16:20:41;;;;;;;;;;;;;;;;;;5045491;28;19917;-77
2023/05/16 16:23:08;;;;;;;;;;;;;;;;;;5047454;28;20179;-77
2023/05/16 16:25:33;;;;;;;;;;;;;;;;;;5026625;28;19916;-79
2023/05/16 16:27:59;;;;;;;;;;;;;;;;;;5044041;28;19967;-79
2023/05/16 16:30:26;;;;;;;;;;;;;;;;;;5059952;28;19917;-77
2023/05/16 16:32:52;;;;;;;;;;;;;;;;;;5062340;28;19940;-79
2023/05/16 16:35:18;;;;;;;;;;;;;;;;;;5067425;28;19916;-79
2023/05/16 16:37:46;;;;;;;;;;;;;;;;;;5044942;28;20018;-78